Taylor, ND

1:11 AM MST on December 08, 2019 (GMT -0700)
Fridley Ranch | | Change Station
Active Advisory: Winter Weather Advisory

Elev 2083 ft 47.09 °N, 102.47 °W | Updated 18 seconds ago

Overcast
Overcast
29.5 °F
Feels Like 30 °F
N
2.2
Wind Variable Wind from East
Gusts 2.2 mph

Today
High -- | Low -- °F
--% Chance of Precip.
Yesterday
High -- | Low -- °F
Precip. -- in
Pressure 29.74 in
Visibility 10.0 miles
Clouds Mostly Cloudy 9000 ft
Windchill 30 °F
Dew Point 27 °F
Humidity 89%
Rainfall 0.00 in
Snow Depth Not available.
7:21 AM 4:01 PM
Waxing Gibbous, 85% visible
METAR KDIK 080756Z AUTO 33005KT 10SM BKN090 01/M03 A2969 RMK AO2 SLP070 T00061028
Pressure 29.74 in
Visibility 10.0 miles
Clouds Mostly Cloudy 9000 ft
Windchill 30 °F
Dew Point 27 °F
Humidity 89%
Rainfall 0.00 in
Snow Depth Not available.
7:21 AM 4:01 PM
Waxing Gibbous, 85% visible
METAR KDIK 080756Z AUTO 33005KT 10SM BKN090 01/M03 A2969 RMK AO2 SLP070 T00061028

Get Your Daily Forecast Email!

Thanks for signing up!

Be on the lookout for a verification email in your inbox.

You'll start receiving severe weather alerts in your inbox..

×

10-Day Weather Forecast

Almanac

Astronomy

Dec. 08, 2019 Rise Set
Actual Time
Civil Twilight
Nautical Twilight
Astronomical Twilight
Moon
Length of Visible Light
Length of Day
Tomorrow will be .
, % of the Moon is Illuminated

Today's Extremes

State Highs State Lows

Community

WunderPhotos

Category 6

Welcome to Category 6. This is the collective home for Weather Underground's featured writeups by Dr. Jeff Masters (right), Bob Henson (left), Chris Burt, and other regular contributors.

Nearby

Air Quality

  Air Quality AQ Index Pollutant
Not available.

Snow Depth

Station Depth Elevation

Earthquake Activity

City Distance Mag. Time & Date
Minimum magnitude displayed is 2.5.

Coastal Water Temperatures

Place Temperature

Stations

Nearby Weather Stations

Station Location Temp. Windchill Dew Point Humidity Wind Precip. Elev Updated Type
                   

Watches & Warnings

Winter Weather Advisory
Issued: 8:47 PM MST Dec. 7, 2019 – National Weather Service

... Winter Weather Advisory now in effect from 9 am CST /8 am MST/
to 9 PM CST /8 PM MST/ Sunday...

* what... snow expected. Total snow accumulations of 3 to 5
inches.

* Where... Dunn, Golden Valley, Billings and Stark counties.

* When... Sunday morning through early Sunday evening.

* Impacts... expect hazardous travel conditions due to low
visibilities in falling snow and snow covered roads.

Precautionary/preparedness actions...

Slow down and use caution while traveling.

The latest Road conditions for the state you are calling from can
be obtained by calling 5 1 1.